createdAt,value
2018-07-27T00:00:48.171Z,8.77
2018-07-27T00:03:18.234Z,7.13
2018-07-27T00:05:54.470Z,8.00
2018-07-27T00:08:24.395Z,7.67
2018-07-27T00:10:54.114Z,8.27
2018-07-27T00:13:23.834Z,7.23
2018-07-27T00:15:53.546Z,8.10
2018-07-27T00:18:23.186Z,8.50
2018-07-27T00:20:52.843Z,9.33
2018-07-27T00:23:22.666Z,8.17
2018-07-27T00:25:53.654Z,8.67
2018-07-27T00:28:24.706Z,7.03
2018-07-27T00:30:54.542Z,8.60
2018-07-27T00:33:24.222Z,8.07
2018-07-27T00:35:55.866Z,8.30
2018-07-27T00:38:27.370Z,8.40
2018-07-27T00:41:00.719Z,8.67
2018-07-27T00:43:31.371Z,8.53
2018-07-27T00:46:02.071Z,7.80
2018-07-27T00:48:33.886Z,7.63
2018-07-27T00:51:09.242Z,8.93
2018-07-27T00:53:40.163Z,7.97
2018-07-27T00:56:11.930Z,7.80
2018-07-27T00:58:41.675Z,8.03
2018-07-27T01:01:13.630Z,8.80
2018-07-27T01:03:43.362Z,8.30
2018-07-27T01:06:13.306Z,7.57
2018-07-27T01:08:43.295Z,7.57
2018-07-27T01:11:13.278Z,7.60
2018-07-27T01:13:47.942Z,7.50
2018-07-27T01:16:17.774Z,7.40
2018-07-27T01:18:48.362Z,7.23
2018-07-27T01:21:20.265Z,8.07
2018-07-27T01:23:51.014Z,7.70
2018-07-27T01:26:23.202Z,8.70
2018-07-27T01:28:54.914Z,7.90
2018-07-27T01:31:24.494Z,7.60
2018-07-27T01:33:54.563Z,8.50
2018-07-27T01:36:25.078Z,7.93
2018-07-27T01:39:00.967Z,8.30
2018-07-27T01:41:30.722Z,9.70
2018-07-27T01:44:02.718Z,7.80
2018-07-27T01:46:32.734Z,7.73
2018-07-27T01:49:06.993Z,8.37
2018-07-27T01:51:37.925Z,7.53
2018-07-27T01:54:12.169Z,8.00
2018-07-27T01:56:50.135Z,8.37
2018-07-27T01:59:20.178Z,7.90
2018-07-27T02:01:53.878Z,9.40
2018-07-27T02:04:23.586Z,9.10
2018-07-27T02:06:54.813Z,9.17
2018-07-27T02:09:33.614Z,9.97
2018-07-27T02:12:08.350Z,9.07
2018-07-27T02:14:42.281Z,9.43
2018-07-27T02:17:16.890Z,8.73
2018-07-27T02:19:46.661Z,8.80
2018-07-27T02:22:17.265Z,9.50
2018-07-27T02:24:56.251Z,9.30
2018-07-27T02:27:27.077Z,9.87
2018-07-27T02:29:56.778Z,9.83
2018-07-27T02:32:31.613Z,8.20
2018-07-27T02:35:03.518Z,7.80
2018-07-27T02:37:34.738Z,8.07
2018-07-27T02:40:06.200Z,7.80
2018-07-27T02:42:36.854Z,8.23
2018-07-27T02:45:12.134Z,7.57
2018-07-27T02:47:50.456Z,6.67
2018-07-27T02:50:22.462Z,7.33
2018-07-27T02:53:00.102Z,6.77
2018-07-27T02:55:35.566Z,7.23
2018-07-27T02:58:07.466Z,7.73
2018-07-27T03:00:40.846Z,7.80
2018-07-27T03:03:11.249Z,7.50
2018-07-27T03:05:41.434Z,7.80
2018-07-27T03:08:17.109Z,7.63
2018-07-27T03:10:47.126Z,7.40
2018-07-27T03:13:17.857Z,7.20
2018-07-27T03:15:49.750Z,7.13
2018-07-27T03:18:19.738Z,7.30
2018-07-27T03:20:54.106Z,7.37
2018-07-27T03:23:25.857Z,6.40
2018-07-27T03:25:56.386Z,7.13
2018-07-27T03:28:32.497Z,6.80
2018-07-27T03:31:02.718Z,7.20
2018-07-27T03:33:38.746Z,6.70
2018-07-27T03:36:08.726Z,6.77
2018-07-27T03:38:42.414Z,7.63
2018-07-27T03:41:15.858Z,7.97
2018-07-27T03:43:47.854Z,7.80
2018-07-27T03:46:18.556Z,7.17
2018-07-27T03:48:52.122Z,7.90
2018-07-27T03:51:23.938Z,8.50
2018-07-27T03:53:54.772Z,6.83
2018-07-27T03:56:26.939Z,8.07
2018-07-27T03:58:57.534Z,8.10
2018-07-27T04:01:29.330Z,7.77
2018-07-27T04:03:59.216Z,7.80
2018-07-27T04:06:29.914Z,8.10
2018-07-27T04:09:00.716Z,6.90
2018-07-27T04:11:30.602Z,6.87
2018-07-27T04:14:01.478Z,7.20
2018-07-27T04:16:31.386Z,7.60
2018-07-27T04:19:06.918Z,7.57
2018-07-27T04:21:36.822Z,7.17
2018-07-27T04:24:08.770Z,8.17
2018-07-27T04:26:39.647Z,7.17
2018-07-27T04:29:10.466Z,7.80
2018-07-27T04:31:41.302Z,7.90
2018-07-27T04:34:13.202Z,8.70
2018-07-27T04:36:46.562Z,7.30
2018-07-27T04:39:16.133Z,7.13
2018-07-27T04:41:46.798Z,8.10
2018-07-27T04:44:17.430Z,8.37
2018-07-27T04:46:47.250Z,9.43
2018-07-27T04:49:21.370Z,7.97
2018-07-27T04:51:54.233Z,7.80
2018-07-27T04:54:27.001Z,7.27
2018-07-27T04:56:58.658Z,7.47
2018-07-27T04:59:28.485Z,6.80
2018-07-27T05:02:01.809Z,7.63
2018-07-27T05:04:32.379Z,7.20
2018-07-27T05:07:03.129Z,6.70
2018-07-27T05:09:33.774Z,6.80
2018-07-27T05:12:06.481Z,7.40
2018-07-27T05:14:41.133Z,6.70
2018-07-27T05:17:12.025Z,6.53
2018-07-27T05:19:41.633Z,7.30
2018-07-27T05:22:17.187Z,7.10
2018-07-27T05:24:47.093Z,7.30
2018-07-27T05:27:16.692Z,6.43
2018-07-27T05:29:46.493Z,5.57
2018-07-27T05:32:16.060Z,7.40
2018-07-27T05:34:45.588Z,6.90
2018-07-27T05:37:16.336Z,6.20
2018-07-27T05:39:52.452Z,6.20
2018-07-27T05:42:22.200Z,6.10
2018-07-27T05:44:54.064Z,5.60
2018-07-27T05:47:29.436Z,5.93
2018-07-27T05:50:02.520Z,5.70
2018-07-27T05:52:41.993Z,5.90
2018-07-27T05:55:11.875Z,5.90
2018-07-27T05:57:42.771Z,5.13
2018-07-27T06:00:12.604Z,6.10
2018-07-27T06:02:42.586Z,5.13
2018-07-27T06:05:14.403Z,5.63
2018-07-27T06:07:46.220Z,5.87
2018-07-27T06:10:16.339Z,4.83
2018-07-27T06:12:47.100Z,5.83
2018-07-27T06:15:25.191Z,5.60
2018-07-27T06:18:06.079Z,5.60
2018-07-27T06:20:37.672Z,6.03
2018-07-27T06:23:12.400Z,5.50
2018-07-27T06:25:42.362Z,5.70
2018-07-27T06:28:16.213Z,6.37
2018-07-27T06:30:50.448Z,5.17
2018-07-27T06:33:21.064Z,5.23
2018-07-27T06:35:55.148Z,6.00
2018-07-27T06:38:26.781Z,5.90
2018-07-27T06:40:57.305Z,6.20
2018-07-27T06:43:27.126Z,6.63
2018-07-27T06:46:03.230Z,6.37
2018-07-27T06:48:34.018Z,6.20
2018-07-27T06:51:04.962Z,6.27
2018-07-27T06:53:34.749Z,6.53
2018-07-27T06:56:08.925Z,7.17
2018-07-27T06:58:44.409Z,5.87
2018-07-27T07:01:15.034Z,7.50
2018-07-27T07:03:44.722Z,6.10
2018-07-27T07:06:14.574Z,5.77
2018-07-27T07:08:48.650Z,7.23
2018-07-27T07:11:22.127Z,6.20
2018-07-27T07:13:51.934Z,7.27
2018-07-27T07:16:35.820Z,5.87
2018-07-27T07:19:08.586Z,6.80
2018-07-27T07:21:44.926Z,6.40
2018-07-27T07:24:22.870Z,6.57
2018-07-27T07:26:52.366Z,6.60
2018-07-27T07:29:24.158Z,6.40
2018-07-27T07:31:54.099Z,5.90
2018-07-27T07:34:24.878Z,5.57
2018-07-27T07:37:11.914Z,6.47
2018-07-27T07:39:51.274Z,5.97
2018-07-27T07:42:22.078Z,5.60
2018-07-27T07:44:51.902Z,6.13
2018-07-27T07:47:24.858Z,5.70
2018-07-27T07:49:54.415Z,6.70
2018-07-27T07:52:26.094Z,6.50
2018-07-27T07:55:02.602Z,5.80
2018-07-27T07:57:33.150Z,5.30
2018-07-27T08:00:07.966Z,5.33
2018-07-27T08:02:44.246Z,5.90
2018-07-27T08:05:14.010Z,5.43
2018-07-27T08:07:43.861Z,4.70
2018-07-27T08:10:15.382Z,5.03
2018-07-27T08:12:45.870Z,4.73
2018-07-27T08:15:16.342Z,5.37
2018-07-27T08:17:47.030Z,3.90
2018-07-27T08:20:16.673Z,4.20
2018-07-27T08:22:49.949Z,4.50
2018-07-27T08:25:20.784Z,4.10
2018-07-27T08:29:08.994Z,4.43
2018-07-27T08:31:46.642Z,4.80
2018-07-27T08:34:17.606Z,4.07
2018-07-27T08:36:53.193Z,4.70
2018-07-27T08:39:38.443Z,4.40
2018-07-27T08:42:12.406Z,4.00
2018-07-27T08:44:43.239Z,4.50
2018-07-27T08:47:16.155Z,4.03
2018-07-27T08:49:50.001Z,4.30
2018-07-27T08:52:19.657Z,4.87
2018-07-27T08:54:51.346Z,4.10
2018-07-27T08:57:25.018Z,4.10
2018-07-27T09:00:06.662Z,4.23
2018-07-27T09:02:40.181Z,3.80
2018-07-27T09:05:10.854Z,4.30
2018-07-27T09:07:40.663Z,3.80
2018-07-27T09:10:16.045Z,3.50
2018-07-27T09:12:49.165Z,3.73
2018-07-27T09:15:25.653Z,3.50
2018-07-27T09:17:56.452Z,3.20
2018-07-27T09:20:35.969Z,3.03
2018-07-27T09:23:12.355Z,3.60
2018-07-27T09:25:42.126Z,3.80
2018-07-27T09:28:12.138Z,4.30
2018-07-27T09:30:43.902Z,3.50
2018-07-27T09:33:15.754Z,3.80
2018-07-27T09:35:45.330Z,3.80
2018-07-27T09:38:14.789Z,3.80
2018-07-27T09:40:45.762Z,3.50
2018-07-27T09:43:15.597Z,3.43
2018-07-27T09:45:47.505Z,3.80
2018-07-27T09:48:24.097Z,3.13
2018-07-27T09:50:53.872Z,3.67
2018-07-27T09:53:23.790Z,3.30
2018-07-27T09:55:54.629Z,3.47
2018-07-27T09:58:25.381Z,3.03
2018-07-27T10:01:04.686Z,3.03
2018-07-27T10:03:37.554Z,3.43
2018-07-27T10:06:13.461Z,3.00
2018-07-27T10:08:43.201Z,2.87
2018-07-27T10:11:14.042Z,3.20
2018-07-27T10:13:44.863Z,3.10
2018-07-27T10:16:15.461Z,3.87
2018-07-27T10:18:45.140Z,3.70
2018-07-27T10:21:14.729Z,3.30
2018-07-27T10:23:45.457Z,3.47
2018-07-27T10:26:15.093Z,4.00
2018-07-27T10:28:44.780Z,3.67
2018-07-27T10:31:14.367Z,4.50
2018-07-27T10:34:12.901Z,3.47
2018-07-27T10:36:43.757Z,3.70
2018-07-27T10:39:15.535Z,3.97
2018-07-27T10:41:46.346Z,3.20
2018-07-27T10:44:17.021Z,3.43
2018-07-27T10:46:46.772Z,4.00
2018-07-27T10:49:22.076Z,3.63
2018-07-27T10:51:52.776Z,4.10
2018-07-27T10:54:28.172Z,3.90
2018-07-27T10:57:11.417Z,3.87
2018-07-27T10:59:44.589Z,3.90
2018-07-27T11:02:15.229Z,4.00
2018-07-27T11:04:45.965Z,4.20
2018-07-27T11:07:15.529Z,3.63
2018-07-27T11:09:46.281Z,3.80
2018-07-27T11:12:18.944Z,3.97
2018-07-27T11:14:58.949Z,3.90
2018-07-27T11:17:29.915Z,3.73
2018-07-27T11:19:59.641Z,3.87
2018-07-27T11:22:31.564Z,3.73
2018-07-27T11:25:02.193Z,3.97
2018-07-27T11:27:31.989Z,4.37
2018-07-27T11:30:02.034Z,4.50
2018-07-27T11:32:32.821Z,4.33
2018-07-27T11:35:02.493Z,3.73
2018-07-27T11:37:32.245Z,3.83
2018-07-27T11:40:02.117Z,3.70
2018-07-27T11:42:33.753Z,4.20
2018-07-27T11:45:06.837Z,4.77
2018-07-27T11:47:36.729Z,3.90
2018-07-27T11:50:06.340Z,5.00
2018-07-27T11:52:40.252Z,4.33
2018-07-27T11:55:13.536Z,4.77
2018-07-27T11:57:48.061Z,4.20
2018-07-27T12:00:18.073Z,4.93
2018-07-27T12:02:47.804Z,5.47
2018-07-27T12:05:19.657Z,5.10
2018-07-27T12:07:53.084Z,4.33
2018-07-27T12:10:23.008Z,4.17
2018-07-27T12:12:54.891Z,4.30
2018-07-27T12:15:34.791Z,3.70
2018-07-27T12:18:06.344Z,4.53
2018-07-27T12:20:36.208Z,5.63
2018-07-27T12:23:09.040Z,4.70
2018-07-27T12:25:39.139Z,4.30
2018-07-27T12:28:10.821Z,5.30
2018-07-27T12:30:46.081Z,4.43
2018-07-27T12:33:17.544Z,4.87
2018-07-27T12:35:47.324Z,3.97
2018-07-27T12:38:17.220Z,4.33
2018-07-27T12:40:46.924Z,4.27
2018-07-27T12:43:16.537Z,4.30
2018-07-27T12:45:48.276Z,4.43
2018-07-27T12:48:23.077Z,4.30
2018-07-27T12:50:52.897Z,4.47
2018-07-27T12:53:23.552Z,4.10
2018-07-27T12:55:55.380Z,3.60
2018-07-27T12:58:26.260Z,4.33
2018-07-27T13:00:56.200Z,4.00
2018-07-27T13:03:26.025Z,4.87
2018-07-27T13:05:59.264Z,4.23
2018-07-27T13:08:29.054Z,3.97
2018-07-27T13:10:58.912Z,3.57
2018-07-27T13:13:29.904Z,3.67
2018-07-27T13:16:00.781Z,3.37
2018-07-27T13:18:30.680Z,3.60
2018-07-27T13:21:02.533Z,3.80
2018-07-27T13:23:32.304Z,2.63
2018-07-27T13:26:29.013Z,2.83
2018-07-27T13:28:43.869Z,3.17
2018-07-27T13:31:13.692Z,3.40
2018-07-27T13:34:05.988Z,3.17
2018-07-27T13:36:37.868Z,3.10
2018-07-27T13:39:09.371Z,2.77
2018-07-27T13:41:39.189Z,2.70
2018-07-27T13:44:10.085Z,3.10
2018-07-27T13:46:39.980Z,2.43
2018-07-27T13:49:10.882Z,2.73
2018-07-27T13:51:46.484Z,2.60
2018-07-27T13:54:17.208Z,2.60
2018-07-27T13:56:47.876Z,2.20
2018-07-27T13:59:19.342Z,1.90
2018-07-27T14:01:51.164Z,2.23
2018-07-27T14:04:20.980Z,2.60
2018-07-27T14:06:58.320Z,2.27
2018-07-27T14:09:28.901Z,2.50
2018-07-27T14:11:58.657Z,2.10
2018-07-27T14:14:28.234Z,2.33
2018-07-27T14:16:58.956Z,2.40
2018-07-27T14:19:30.140Z,2.60
2018-07-27T14:21:59.621Z,2.00
2018-07-27T14:24:29.332Z,2.33
2018-07-27T14:26:58.952Z,1.80
2018-07-27T14:29:28.444Z,1.40
2018-07-27T14:31:58.271Z,2.10
2018-07-27T14:34:30.063Z,2.33
2018-07-27T14:37:01.724Z,2.10
2018-07-27T14:39:32.212Z,2.00
2018-07-27T14:42:06.947Z,1.93
2018-07-27T14:44:36.732Z,1.90
2018-07-27T14:47:06.412Z,1.30
2018-07-27T14:49:36.079Z,1.77
2018-07-27T14:52:06.889Z,2.07
2018-07-27T14:54:38.760Z,2.00
2018-07-27T14:57:13.667Z,1.90
2018-07-27T15:00:03.220Z,1.43
2018-07-27T15:02:33.060Z,2.03
2018-07-27T15:05:13.172Z,2.60
2018-07-27T15:07:43.040Z,2.00
2018-07-27T15:10:13.872Z,2.10
2018-07-27T15:12:45.739Z,2.20
2018-07-27T15:15:20.150Z,2.27
2018-07-27T15:17:59.408Z,2.13
2018-07-27T15:20:30.184Z,1.53
2018-07-27T15:23:00.000Z,2.50
2018-07-27T15:25:42.047Z,2.20
2018-07-27T15:28:13.716Z,2.03
2018-07-27T15:30:44.399Z,2.30
2018-07-27T15:33:19.646Z,3.13
2018-07-27T15:35:54.903Z,3.13
2018-07-27T15:38:26.751Z,2.37
2018-07-27T15:41:13.141Z,2.90
2018-07-27T15:43:47.400Z,3.10
2018-07-27T15:46:18.880Z,3.23
2018-07-27T15:48:48.714Z,3.23
2018-07-27T15:51:20.513Z,3.43
2018-07-27T15:53:50.316Z,2.70
2018-07-27T15:56:23.908Z,2.87
2018-07-27T15:59:07.804Z,3.00
2018-07-27T16:01:37.568Z,2.97
2018-07-27T16:04:07.324Z,2.80
2018-07-27T16:06:36.963Z,3.23
2018-07-27T16:09:08.644Z,3.43
2018-07-27T16:11:43.339Z,3.50
2018-07-27T16:14:13.116Z,4.00
2018-07-27T16:16:42.647Z,3.33
2018-07-27T16:19:13.464Z,3.67
2018-07-27T16:21:43.147Z,3.20
2018-07-27T16:24:12.844Z,3.40
2018-07-27T16:26:50.291Z,3.10
2018-07-27T16:29:25.987Z,3.20
2018-07-27T16:31:57.943Z,3.53
2018-07-27T16:34:30.375Z,3.03
2018-07-27T16:36:59.915Z,2.90
2018-07-27T16:39:30.628Z,2.93
2018-07-27T16:42:07.364Z,2.87
2018-07-27T16:44:37.811Z,3.10
2018-07-27T16:47:10.532Z,3.30
2018-07-27T16:49:40.339Z,3.20
2018-07-27T16:52:10.144Z,3.50
2018-07-27T16:54:41.708Z,2.80
2018-07-27T16:57:12.312Z,2.97
2018-07-27T16:59:50.417Z,3.83
2018-07-27T17:02:22.165Z,3.00
2018-07-27T17:04:53.688Z,2.67
2018-07-27T17:07:23.240Z,3.43
2018-07-27T17:10:01.316Z,3.27
2018-07-27T17:12:31.228Z,3.57
2018-07-27T17:15:01.764Z,3.47
2018-07-27T17:17:32.220Z,3.67
2018-07-27T17:20:01.959Z,3.00
2018-07-27T17:22:32.828Z,3.17
2018-07-27T17:25:07.148Z,3.13
2018-07-27T17:27:57.908Z,3.30
2018-07-27T17:30:28.880Z,3.00
2018-07-27T17:33:06.896Z,2.90
2018-07-27T17:35:44.348Z,3.87
2018-07-27T17:38:13.921Z,3.00
2018-07-27T17:40:47.096Z,3.40
2018-07-27T17:43:18.876Z,4.13
2018-07-27T17:45:56.831Z,4.50
2018-07-27T17:48:38.913Z,3.33
2018-07-27T17:51:08.708Z,3.50
2018-07-27T17:53:44.267Z,3.63
2018-07-27T17:56:17.040Z,3.60
2018-07-27T17:58:46.540Z,3.77
2018-07-27T18:01:27.047Z,3.73
2018-07-27T18:04:11.697Z,3.20
2018-07-27T18:06:43.365Z,3.50
2018-07-27T18:09:13.235Z,4.10
2018-07-27T18:11:44.782Z,4.00
2018-07-27T18:14:17.355Z,3.63
2018-07-27T18:16:48.092Z,4.37
2018-07-27T18:19:19.976Z,3.30
2018-07-27T18:21:50.878Z,3.47
2018-07-27T18:24:21.280Z,4.30
2018-07-27T18:26:52.192Z,4.13
2018-07-27T18:29:22.139Z,4.30
2018-07-27T18:31:53.068Z,4.40
2018-07-27T18:34:24.051Z,4.07
2018-07-27T18:36:53.931Z,4.43
2018-07-27T18:39:24.843Z,4.53
2018-07-27T18:41:54.600Z,4.67
2018-07-27T18:44:24.381Z,6.67
2018-07-27T18:46:56.224Z,5.43
2018-07-27T18:49:30.229Z,5.23
2018-07-27T18:52:07.411Z,4.80
2018-07-27T18:54:42.795Z,4.90
2018-07-27T18:57:12.459Z,5.80
2018-07-27T18:59:47.703Z,5.00
2018-07-27T19:02:17.611Z,5.03
2018-07-27T19:04:48.215Z,5.43
2018-07-27T19:07:19.073Z,5.40
2018-07-27T19:09:49.733Z,4.93
2018-07-27T19:12:19.579Z,4.70
2018-07-27T19:14:49.342Z,5.20
2018-07-27T19:17:22.020Z,5.27
2018-07-27T19:19:51.820Z,6.33
2018-07-27T19:22:21.639Z,5.33
2018-07-27T19:24:55.503Z,4.83
2018-07-27T19:27:26.930Z,4.87
2018-07-27T19:29:57.507Z,4.90
2018-07-27T19:32:26.987Z,5.00
2018-07-27T19:34:56.551Z,4.07
2018-07-27T19:37:26.135Z,5.83
2018-07-27T19:40:01.640Z,6.30
2018-07-27T19:42:36.119Z,6.27
2018-07-27T19:45:07.827Z,5.40
2018-07-27T19:47:40.819Z,6.40
2018-07-27T19:50:12.463Z,6.67
2018-07-27T19:52:44.263Z,6.03
2018-07-27T19:55:15.171Z,6.00
2018-07-27T19:57:44.991Z,6.40
2018-07-27T20:00:14.867Z,5.43
2018-07-27T20:02:45.847Z,5.63
2018-07-27T20:05:16.711Z,6.17
2018-07-27T20:07:46.666Z,6.10
2018-07-27T20:10:17.327Z,6.10
2018-07-27T20:12:48.059Z,5.90
2018-07-27T20:15:41.896Z,5.57
2018-07-27T20:18:11.851Z,11.47
2018-07-27T20:20:49.083Z,7.90
2018-07-27T20:23:23.808Z,6.60
2018-07-27T20:25:55.654Z,6.13
2018-07-27T20:28:29.050Z,6.60
2018-07-27T20:31:05.735Z,7.10
2018-07-27T20:33:35.642Z,6.40
2018-07-27T20:36:07.523Z,6.00
2018-07-27T20:38:38.223Z,6.30
2018-07-27T20:41:09.887Z,6.37
2018-07-27T20:43:40.430Z,7.23
2018-07-27T20:46:10.452Z,7.27
2018-07-27T20:48:46.791Z,6.77
2018-07-27T20:51:17.787Z,6.37
2018-07-27T20:53:47.927Z,6.90
2018-07-27T20:56:17.603Z,7.53
2018-07-27T20:58:48.487Z,6.97
2018-07-27T21:01:19.239Z,5.77
2018-07-27T21:03:52.323Z,6.07
2018-07-27T21:06:22.723Z,6.60
2018-07-27T21:08:58.391Z,5.23
2018-07-27T21:11:32.722Z,6.70
2018-07-27T21:14:02.665Z,6.37
2018-07-27T21:16:32.516Z,5.57
2018-07-27T21:19:02.255Z,5.70
2018-07-27T21:21:32.146Z,5.50
2018-07-27T21:24:04.103Z,5.97
2018-07-27T21:26:34.003Z,6.57
2018-07-27T21:29:04.893Z,5.93
2018-07-27T21:31:36.751Z,5.60
2018-07-27T21:34:06.755Z,6.20
2018-07-27T21:36:36.627Z,6.23
2018-07-27T21:39:12.847Z,7.13
2018-07-27T21:41:42.654Z,7.37
2018-07-27T21:44:16.270Z,8.13
2018-07-27T21:46:46.154Z,6.67
2018-07-27T21:49:15.859Z,8.60
2018-07-27T21:51:51.330Z,6.40
2018-07-27T21:54:21.555Z,6.40
2018-07-27T21:56:51.319Z,6.57
2018-07-27T21:59:22.323Z,6.30
2018-07-27T22:01:52.139Z,5.43
2018-07-27T22:04:24.267Z,6.17
2018-07-27T22:06:54.787Z,6.90
2018-07-27T22:09:24.559Z,5.97
2018-07-27T22:11:58.695Z,5.87
2018-07-27T22:14:30.806Z,6.20
2018-07-27T22:17:04.055Z,5.63
2018-07-27T22:19:39.747Z,6.83
2018-07-27T22:22:10.714Z,5.40
2018-07-27T22:24:42.358Z,5.80
2018-07-27T22:27:12.099Z,6.50
2018-07-27T22:29:46.035Z,6.03
2018-07-27T22:32:16.979Z,6.70
2018-07-27T22:34:47.658Z,5.90
2018-07-27T22:37:18.514Z,7.00
2018-07-27T22:39:49.582Z,6.93
2018-07-27T22:42:27.078Z,6.57
2018-07-27T22:44:57.642Z,6.60
2018-07-27T22:47:31.431Z,6.07
2018-07-27T22:50:02.615Z,6.67
2018-07-27T22:52:36.782Z,6.33
2018-07-27T22:55:12.055Z,6.27
2018-07-27T22:57:42.815Z,6.40
2018-07-27T23:00:15.881Z,7.70
2018-07-27T23:02:45.695Z,6.40
2018-07-27T23:05:19.723Z,7.37
2018-07-27T23:07:49.819Z,6.93
2018-07-27T23:10:22.555Z,7.37
2018-07-27T23:12:52.350Z,6.80
2018-07-27T23:15:22.856Z,7.33
2018-07-27T23:17:54.782Z,7.27
2018-07-27T23:20:31.531Z,7.37
2018-07-27T23:23:03.035Z,8.20
2018-07-27T23:25:40.292Z,6.50
2018-07-27T23:28:10.175Z,5.93
2018-07-27T23:30:40.150Z,8.00
2018-07-27T23:33:10.111Z,6.97
2018-07-27T23:35:41.575Z,6.93
2018-07-27T23:38:12.265Z,6.60
2018-07-27T23:40:42.926Z,7.40
2018-07-27T23:43:12.593Z,7.40
2018-07-27T23:45:45.472Z,7.00
2018-07-27T23:48:15.437Z,7.10
2018-07-27T23:50:46.643Z,7.60
2018-07-27T23:53:17.391Z,7.40
2018-07-27T23:55:47.394Z,7.10
